Time;durP1;ratioP1;P1;durP2;ratioP2;P2;SDS_P1;SDS_P2;PMS_P1;PMS_P2;Temp;Humidity;BMP_temperature;BMP_pressure;BME280_temperature;BME280_humidity;BME280_pressure;Samples;Min_cycle;Max_cycle;Signal;HPM_P1;HPM_P2
2022/07/02 00:02:21;;;;;;;2.15;0.52;;;18.10;50.40;;;;;;4921043;28;20089;-75
2022/07/02 00:04:55;;;;;;;2.58;0.85;;;18.10;50.50;;;;;;4920329;29;20393;-74
2022/07/02 00:07:21;;;;;;;5.93;2.42;;;18.10;50.60;;;;;;4936166;28;20031;-76
2022/07/02 00:09:47;;;;;;;2.75;0.90;;;18.00;50.50;;;;;;4936996;29;20440;-75
2022/07/02 00:12:13;;;;;;;1.42;0.82;;;18.00;50.60;;;;;;4946121;29;20054;-75
2022/07/02 00:14:39;;;;;;;3.75;1.15;;;17.90;50.50;;;;;;4943520;28;20420;-76
2022/07/02 00:17:06;;;;;;;2.10;0.80;;;17.90;50.60;;;;;;4944480;29;20042;-75
2022/07/02 00:19:32;;;;;;;2.80;1.00;;;17.90;50.70;;;;;;4948143;29;20173;-75
2022/07/02 00:21:59;;;;;;;4.47;0.60;;;17.80;50.60;;;;;;4941072;29;20439;-75
2022/07/02 00:24:24;;;;;;;1.83;1.25;;;17.80;50.80;;;;;;4946686;29;20043;-75
2022/07/02 00:26:57;;;;;;;2.33;0.70;;;17.70;50.60;;;;;;4949544;29;20038;-74
2022/07/02 00:29:41;;;;;;;3.05;1.10;;;17.70;50.80;;;;;;4941639;29;20067;-76
2022/07/02 00:32:07;;;;;;;2.17;0.73;;;17.70;50.90;;;;;;4916043;29;20115;-75
2022/07/02 00:34:37;;;;;;;3.88;0.98;;;17.70;50.80;;;;;;4950659;29;20042;-75
2022/07/02 00:37:03;;;;;;;1.98;1.00;;;17.60;50.80;;;;;;4941215;29;20441;-75
2022/07/02 00:39:29;;;;;;;1.10;0.75;;;17.60;50.90;;;;;;4950057;29;20175;-76
2022/07/02 00:41:56;;;;;;;1.70;0.60;;;17.60;51.00;;;;;;4945223;29;20101;-75
2022/07/02 00:44:22;;;;;;;1.55;0.57;;;17.50;50.80;;;;;;4939733;29;20051;-75
2022/07/02 00:46:49;;;;;;;4.38;1.20;;;17.50;51.00;;;;;;4945923;29;20031;-78
2022/07/02 00:49:17;;;;;;;4.13;0.77;;;17.40;50.80;;;;;;4950844;29;20404;-75
2022/07/02 00:51:42;;;;;;;2.33;0.80;;;17.40;50.90;;;;;;4947708;29;20108;-76
2022/07/02 00:54:08;;;;;;;2.45;0.70;;;17.40;51.00;;;;;;4927086;29;20040;-75
2022/07/02 00:56:34;;;;;;;1.48;0.50;;;17.40;51.10;;;;;;4937297;28;20492;-76
2022/07/02 00:59:04;;;;;;;1.95;0.88;;;17.30;51.00;;;;;;4940706;29;20035;-77
2022/07/02 01:01:30;;;;;;;2.08;0.65;;;17.30;51.10;;;;;;4948270;29;20602;-75
2022/07/02 01:03:59;;;;;;;1.55;0.98;;;17.30;51.20;;;;;;4935198;29;20105;-76
2022/07/02 01:06:27;;;;;;;1.83;0.93;;;17.20;51.10;;;;;;4952119;29;20042;-76
2022/07/02 01:11:41;;;;;;;2.78;0.60;;;17.20;51.30;;;;;;4938760;29;20062;-76
2022/07/02 01:14:07;;;;;;;2.42;0.93;;;17.20;51.30;;;;;;4951423;28;20069;-75
2022/07/02 01:16:33;;;;;;;1.90;0.60;;;17.20;51.40;;;;;;4943628;29;20119;-75
2022/07/02 01:18:59;;;;;;;2.95;0.80;;;17.10;51.30;;;;;;4952124;29;20061;-74
2022/07/02 01:21:25;;;;;;;1.90;0.52;;;17.10;51.40;;;;;;4938720;29;20047;-75
2022/07/02 01:23:51;;;;;;;1.75;0.60;;;17.10;51.40;;;;;;4924122;29;20032;-74
2022/07/02 01:26:17;;;;;;;5.05;0.70;;;17.10;51.50;;;;;;4947866;28;20050;-76
2022/07/02 01:28:42;;;;;;;3.13;0.85;;;17.10;51.60;;;;;;4949110;29;20023;-75
2022/07/02 01:31:09;;;;;;;1.63;0.70;;;17.00;51.40;;;;;;4939195;29;20824;-75
2022/07/02 01:33:35;;;;;;;2.15;0.90;;;17.00;51.50;;;;;;4944145;29;20062;-75
2022/07/02 01:36:01;;;;;;;2.30;1.05;;;17.00;51.60;;;;;;4946473;29;20038;-75
2022/07/02 01:38:27;;;;;;;2.50;0.50;;;17.00;51.60;;;;;;4922568;29;20410;-74
2022/07/02 01:41:38;;;;;;;3.33;1.00;;;17.00;51.70;;;;;;4939502;29;20468;-75
2022/07/02 01:43:39;;;;;;;2.13;0.63;;;17.00;51.80;;;;;;4940456;29;20142;-75
2022/07/02 01:46:05;;;;;;;1.13;0.60;;;17.00;51.70;;;;;;4931186;29;20412;-75
2022/07/02 01:48:30;;;;;;;2.97;0.77;;;17.00;51.80;;;;;;4942053;29;20023;-77
2022/07/02 01:50:56;;;;;;;3.33;0.90;;;17.00;51.80;;;;;;4950630;29;20038;-75
2022/07/02 01:53:22;;;;;;;4.30;0.90;;;17.10;52.00;;;;;;4921372;29;20047;-75
2022/07/02 01:55:48;;;;;;;2.55;0.68;;;17.00;51.90;;;;;;4949880;29;20242;-75
2022/07/02 01:58:14;;;;;;;2.58;1.25;;;17.10;52.10;;;;;;4950074;29;20038;-74
2022/07/02 02:00:40;;;;;;;3.13;0.90;;;17.00;52.00;;;;;;4933642;29;20467;-75
2022/07/02 02:03:06;;;;;;;2.15;0.77;;;17.00;52.00;;;;;;4931131;29;20357;-75
2022/07/02 02:05:31;;;;;;;2.17;0.60;;;17.00;52.00;;;;;;4950288;29;20572;-75
2022/07/02 02:07:57;;;;;;;1.77;1.05;;;17.00;52.10;;;;;;4936495;29;20023;-75
2022/07/02 02:10:23;;;;;;;1.55;0.57;;;17.10;52.30;;;;;;4950100;29;20535;-75
2022/07/02 02:12:49;;;;;;;2.35;1.00;;;17.10;52.30;;;;;;4930464;29;20044;-76
2022/07/02 02:15:15;;;;;;;1.38;1.00;;;17.00;52.20;;;;;;4944781;29;20039;-76
2022/07/02 02:17:41;;;;;;;3.47;0.57;;;17.10;52.30;;;;;;4928435;29;20468;-75
2022/07/02 02:20:07;;;;;;;1.27;0.68;;;17.10;52.40;;;;;;4944303;29;20031;-76
2022/07/02 02:22:33;;;;;;;4.35;0.80;;;17.10;52.40;;;;;;4950258;29;20046;-75
2022/07/02 02:24:59;;;;;;;1.83;0.70;;;17.10;52.40;;;;;;4927755;29;20055;-75
2022/07/02 02:27:25;;;;;;;3.58;0.57;;;17.10;52.40;;;;;;4945551;29;20090;-75
2022/07/02 02:29:51;;;;;;;1.75;0.80;;;17.20;52.60;;;;;;4941178;29;20130;-74
2022/07/02 02:32:19;;;;;;;1.98;0.77;;;17.10;52.40;;;;;;4931828;29;20126;-75
2022/07/02 02:34:45;;;;;;;4.10;0.77;;;17.20;52.70;;;;;;4924284;29;20494;-75
2022/07/02 02:37:11;;;;;;;2.22;0.60;;;17.20;52.60;;;;;;4947081;29;20159;-75
2022/07/02 02:39:37;;;;;;;2.70;0.70;;;17.20;52.70;;;;;;4916793;29;20020;-74
2022/07/02 02:42:03;;;;;;;2.05;0.60;;;17.20;52.70;;;;;;4940054;29;20066;-76
2022/07/02 02:44:29;;;;;;;2.50;1.02;;;17.20;52.70;;;;;;4918149;29;20139;-75
2022/07/02 02:46:55;;;;;;;2.65;0.60;;;17.20;52.80;;;;;;4926638;29;20183;-75
2022/07/02 02:49:25;;;;;;;1.30;0.45;;;17.20;52.80;;;;;;4923590;29;20043;-75
2022/07/02 02:51:51;;;;;;;2.25;0.57;;;17.20;52.80;;;;;;4946713;29;20098;-76
2022/07/02 02:54:17;;;;;;;1.98;1.02;;;17.20;52.80;;;;;;4949991;29;20039;-75
2022/07/02 02:56:43;;;;;;;3.85;0.88;;;17.20;52.90;;;;;;4948809;29;20496;-75
2022/07/02 02:59:08;;;;;;;2.67;0.50;;;17.30;53.10;;;;;;4943353;29;20034;-77
2022/07/02 03:01:34;;;;;;;1.40;0.50;;;17.20;53.00;;;;;;4945411;28;20039;-74
2022/07/02 03:04:00;;;;;;;1.42;0.55;;;17.20;53.00;;;;;;4949197;29;20042;-74
2022/07/02 03:06:26;;;;;;;1.10;0.52;;;17.20;53.00;;;;;;4941442;29;20085;-75
2022/07/02 03:08:52;;;;;;;2.92;1.58;;;17.20;53.10;;;;;;4949544;29;20066;-76
2022/07/02 03:11:18;;;;;;;2.05;0.50;;;17.20;53.20;;;;;;4948093;29;20031;-75
2022/07/02 03:13:44;;;;;;;0.98;0.40;;;17.20;53.20;;;;;;4922514;29;20166;-76
2022/07/02 03:16:10;;;;;;;3.08;0.57;;;17.20;53.20;;;;;;4939442;29;20064;-76
2022/07/02 03:18:35;;;;;;;2.70;1.00;;;17.20;53.30;;;;;;4950126;29;20035;-74
2022/07/02 03:21:01;;;;;;;2.58;0.80;;;17.20;53.30;;;;;;4942450;29;20527;-76
2022/07/02 03:23:27;;;;;;;2.15;0.50;;;17.20;53.40;;;;;;4913771;29;20237;-75
2022/07/02 03:25:54;;;;;;;1.90;0.57;;;17.20;53.50;;;;;;4944847;29;20039;-75
2022/07/02 03:28:19;;;;;;;2.20;0.70;;;17.20;53.50;;;;;;4950216;29;20393;-75
2022/07/02 03:30:45;;;;;;;2.42;0.60;;;17.20;53.60;;;;;;4937386;29;20504;-75
2022/07/02 03:33:11;;;;;;;2.35;0.63;;;17.20;53.60;;;;;;4943624;29;20051;-75
2022/07/02 03:35:37;;;;;;;1.20;0.50;;;17.20;53.60;;;;;;4947091;29;20035;-75
2022/07/02 03:38:03;;;;;;;2.00;0.65;;;17.20;53.60;;;;;;4949770;29;20031;-75
2022/07/02 03:40:31;;;;;;;4.28;1.05;;;17.20;53.70;;;;;;4948442;29;20023;-75
2022/07/02 03:42:57;;;;;;;4.00;0.75;;;17.30;53.90;;;;;;4938700;29;20039;-75
2022/07/02 03:45:23;;;;;;;3.22;0.90;;;17.20;53.70;;;;;;4945935;29;20109;-75
2022/07/02 03:47:48;;;;;;;2.20;0.70;;;17.30;54.00;;;;;;4948375;29;20039;-76
2022/07/02 03:50:14;;;;;;;2.30;0.57;;;17.20;53.80;;;;;;4941489;29;20394;-75
2022/07/02 03:52:40;;;;;;;1.65;0.50;;;17.30;54.10;;;;;;4934242;29;20047;-75
2022/07/02 03:55:07;;;;;;;2.70;0.60;;;17.30;54.10;;;;;;4942099;29;20180;-75
2022/07/02 03:57:34;;;;;;;1.83;0.57;;;17.30;54.20;;;;;;4938842;29;20035;-75
2022/07/02 04:00:00;;;;;;;1.40;0.40;;;17.30;54.20;;;;;;4949119;28;20034;-74
2022/07/02 04:02:26;;;;;;;0.90;0.50;;;17.30;54.20;;;;;;4941954;28;20015;-75
2022/07/02 04:04:53;;;;;;;2.13;0.50;;;17.30;54.30;;;;;;4939860;28;20513;-76
2022/07/02 04:07:20;;;;;;;2.42;0.90;;;17.30;54.30;;;;;;4924521;28;20035;-76
2022/07/02 04:09:45;;;;;;;1.73;0.68;;;17.30;54.30;;;;;;4943375;28;20036;-74
2022/07/02 04:12:12;;;;;;;2.42;0.80;;;17.30;54.40;;;;;;4940548;28;20043;-76
2022/07/02 04:14:38;;;;;;;1.25;0.65;;;17.30;54.40;;;;;;4943438;28;20043;-75
2022/07/02 04:17:05;;;;;;;1.80;0.60;;;17.30;54.50;;;;;;4940589;28;20501;-76
2022/07/02 04:19:31;;;;;;;3.20;1.42;;;17.30;54.50;;;;;;4950098;28;20040;-75
2022/07/02 04:21:59;;;;;;;2.65;0.95;;;17.30;54.50;;;;;;4921666;28;20032;-75
2022/07/02 04:24:25;;;;;;;1.52;0.65;;;17.30;54.60;;;;;;4931967;28;20032;-75
2022/07/02 04:26:50;;;;;;;2.28;1.23;;;17.30;54.60;;;;;;4962395;28;20059;-75
2022/07/02 04:29:16;;;;;;;3.20;0.80;;;17.30;54.60;;;;;;4948386;28;20096;-75
2022/07/02 04:31:42;;;;;;;1.70;0.60;;;17.30;54.60;;;;;;4966680;28;20042;-76
2022/07/02 04:34:08;;;;;;;3.85;1.15;;;17.30;54.60;;;;;;4963946;28;20121;-75
2022/07/02 04:36:34;;;;;;;1.80;0.82;;;17.30;55.30;;;;;;4951173;28;20492;-76
2022/07/02 04:39:02;;;;;;;2.40;0.80;;;17.40;54.90;;;;;;4941040;28;20031;-76
2022/07/02 04:41:27;;;;;;;3.30;1.30;;;17.40;54.90;;;;;;4925942;28;20035;-75
2022/07/02 04:43:53;;;;;;;1.13;0.60;;;17.40;54.90;;;;;;4942677;28;20062;-76
2022/07/02 04:46:19;;;;;;;1.75;0.57;;;17.50;55.00;;;;;;4943469;28;20042;-75
2022/07/02 04:48:45;;;;;;;4.57;1.10;;;17.50;55.00;;;;;;4935602;28;20027;-74
2022/07/02 04:51:11;;;;;;;3.55;0.60;;;17.50;54.90;;;;;;4918388;28;20110;-74
2022/07/02 04:53:37;;;;;;;3.63;0.73;;;17.60;55.20;;;;;;4932693;28;20039;-73
2022/07/02 04:56:03;;;;;;;2.42;0.90;;;17.60;55.10;;;;;;4917534;28;20501;-75
2022/07/02 04:58:29;;;;;;;4.50;0.77;;;17.70;55.20;;;;;;4942265;28;20437;-75
2022/07/02 05:00:55;;;;;;;1.92;0.77;;;17.70;55.20;;;;;;4938146;28;20047;-75
2022/07/02 05:03:21;;;;;;;2.13;0.68;;;17.70;55.20;;;;;;4922772;28;20576;-75
2022/07/02 05:05:50;;;;;;;3.53;0.70;;;17.70;55.20;;;;;;4944400;28;20031;-75
2022/07/02 05:08:16;;;;;;;1.67;0.70;;;17.70;55.20;;;;;;4944222;28;20035;-75
2022/07/02 05:10:42;;;;;;;2.53;0.77;;;17.80;55.30;;;;;;4923137;29;20082;-76
2022/07/02 05:13:07;;;;;;;1.92;0.65;;;17.80;55.30;;;;;;4939954;28;20532;-76
2022/07/02 05:15:33;;;;;;;0.88;0.50;;;17.90;55.40;;;;;;4942519;28;20532;-76
2022/07/02 05:17:59;;;;;;;1.50;0.45;;;17.90;55.40;;;;;;4940733;28;20031;-75
2022/07/02 05:20:28;;;;;;;1.80;0.50;;;18.00;55.50;;;;;;4939920;28;20031;-75
2022/07/02 05:22:53;;;;;;;2.78;0.77;;;18.00;55.30;;;;;;4919587;28;20031;-75
2022/07/02 05:25:19;;;;;;;2.22;0.70;;;18.10;55.40;;;;;;4922350;28;20015;-75
2022/07/02 05:27:45;;;;;;;1.70;0.30;;;18.20;55.50;;;;;;4924176;28;20053;-75
2022/07/02 05:30:11;;;;;;;1.48;0.60;;;18.20;55.50;;;;;;4933485;28;20039;-76
2022/07/02 05:32:37;;;;;;;2.20;0.70;;;18.30;55.50;;;;;;4937463;28;20563;-75
2022/07/02 05:35:03;;;;;;;1.67;0.55;;;18.30;55.50;;;;;;4940962;28;20388;-75
2022/07/02 05:37:29;;;;;;;2.47;0.77;;;18.30;55.40;;;;;;4938664;28;20027;-74
2022/07/02 05:39:55;;;;;;;2.35;0.60;;;18.40;55.50;;;;;;4936274;28;20051;-75
2022/07/02 05:42:21;;;;;;;5.13;1.00;;;18.40;55.50;;;;;;4940608;28;20299;-75
2022/07/02 05:44:47;;;;;;;0.90;0.43;;;18.50;55.60;;;;;;4920634;28;20047;-76
2022/07/02 05:47:13;;;;;;;1.88;0.60;;;18.60;55.60;;;;;;4923583;28;20180;-75
2022/07/02 05:49:39;;;;;;;1.95;0.60;;;18.70;55.70;;;;;;4938529;28;20083;-75
2022/07/02 05:52:05;;;;;;;2.15;0.75;;;18.70;56.20;;;;;;4939403;28;20045;-74
2022/07/02 05:54:31;;;;;;;4.20;0.98;;;18.70;55.60;;;;;;4934964;28;20035;-78
2022/07/02 05:56:57;;;;;;;3.45;0.70;;;18.80;55.70;;;;;;4943138;28;20058;-77
2022/07/02 05:59:22;;;;;;;2.47;0.70;;;18.80;55.60;;;;;;4937423;28;20114;-75
2022/07/02 06:01:48;;;;;;;3.47;0.80;;;18.90;55.70;;;;;;4938918;28;20027;-75
2022/07/02 06:04:15;;;;;;;3.40;1.50;;;19.00;55.80;;;;;;4941858;28;20042;-77
2022/07/02 06:09:25;;;;;;;1.70;0.60;;;19.20;55.80;;;;;;4937334;28;20572;-77
2022/07/02 06:11:50;;;;;;;3.83;1.63;;;19.20;55.70;;;;;;4925508;28;20043;-76
2022/07/02 06:14:16;;;;;;;2.13;0.70;;;19.30;55.70;;;;;;4939387;28;20206;-76
2022/07/02 06:16:42;;;;;;;3.17;0.93;;;19.40;55.70;;;;;;4936942;28;20320;-76
2022/07/02 06:19:08;;;;;;;2.90;0.60;;;19.50;55.70;;;;;;4938585;28;20400;-77
2022/07/02 06:21:35;;;;;;;3.13;1.33;;;19.70;55.70;;;;;;4924615;28;20030;-74
2022/07/02 06:24:01;;;;;;;1.75;0.50;;;20.00;55.90;;;;;;4940164;28;20120;-76
2022/07/02 06:26:27;;;;;;;3.00;0.77;;;20.10;55.70;;;;;;4936435;28;20464;-76
2022/07/02 06:28:52;;;;;;;3.00;0.70;;;20.30;55.80;;;;;;4939417;28;20230;-78
2022/07/02 06:31:18;;;;;;;2.13;0.77;;;20.40;55.60;;;;;;4944574;28;20029;-78
2022/07/02 06:33:44;;;;;;;1.75;0.90;;;20.60;55.70;;;;;;4924061;28;20465;-78
2022/07/02 06:36:14;;;;;;;2.92;0.85;;;20.80;55.70;;;;;;4938807;28;20836;-79
2022/07/02 06:38:43;;;;;;;3.80;1.42;;;20.80;55.40;;;;;;4937200;28;20106;-78
2022/07/02 06:43:54;;;;;;;3.78;1.10;;;20.80;55.40;;;;;;4936037;28;20094;-80
2022/07/02 06:46:20;;;;;;;4.18;1.10;;;20.70;55.60;;;;;;4942296;28;20089;-80
2022/07/02 06:48:45;;;;;;;4.97;1.20;;;20.60;55.60;;;;;;4940842;28;20437;-77
2022/07/02 06:51:11;;;;;;;4.35;1.52;;;20.50;55.60;;;;;;4921520;29;20038;-78
2022/07/02 06:53:37;;;;;;;4.93;1.23;;;20.50;56.30;;;;;;4942405;28;20046;-78
2022/07/02 06:56:03;;;;;;;6.40;1.58;;;20.50;55.90;;;;;;4935582;28;20094;-76
2022/07/02 06:58:29;;;;;;;6.80;1.23;;;20.50;55.90;;;;;;4938302;28;20043;-76
2022/07/02 07:00:55;;;;;;;3.67;1.63;;;20.60;56.10;;;;;;4934658;28;20063;-79
2022/07/02 07:03:21;;;;;;;4.55;1.27;;;20.60;56.20;;;;;;4913096;28;20115;-79
2022/07/02 07:05:47;;;;;;;4.43;1.05;;;20.60;56.20;;;;;;4923374;29;20786;-79
2022/07/02 07:08:13;;;;;;;3.08;1.30;;;20.60;56.20;;;;;;4938449;28;20037;-77
2022/07/02 07:10:40;;;;;;;4.68;1.20;;;20.70;56.30;;;;;;4936233;28;20398;-77
2022/07/02 07:13:06;;;;;;;6.38;1.23;;;20.80;56.30;;;;;;4935630;28;20121;-78
2022/07/02 07:15:32;;;;;;;5.40;1.73;;;20.90;56.40;;;;;;4939784;28;20424;-77
2022/07/02 07:17:58;;;;;;;4.82;1.20;;;20.90;56.20;;;;;;4938700;28;20031;-78
2022/07/02 07:20:29;;;;;;;4.85;1.30;;;20.90;56.30;;;;;;4923891;29;20416;-79
2022/07/02 07:22:59;;;;;;;3.22;0.93;;;20.90;56.40;;;;;;4919841;29;20036;-76
2022/07/02 07:25:26;;;;;;;5.30;1.20;;;20.80;56.20;;;;;;4935575;28;20063;-76
2022/07/02 07:27:52;;;;;;;4.97;1.23;;;20.80;56.40;;;;;;4919441;28;20116;-75
2022/07/02 07:30:18;;;;;;;3.63;1.30;;;20.80;56.50;;;;;;4935437;28;20274;-75
2022/07/02 07:32:44;;;;;;;4.93;1.23;;;20.80;56.50;;;;;;4941936;28;20407;-80
2022/07/02 07:35:10;;;;;;;3.40;1.20;;;20.90;56.50;;;;;;4935658;28;20172;-78
2022/07/02 07:37:36;;;;;;;4.38;1.25;;;20.90;56.50;;;;;;4917158;28;20548;-78
2022/07/02 07:40:04;;;;;;;4.25;1.23;;;20.90;56.40;;;;;;4938237;28;20035;-78
2022/07/02 07:42:30;;;;;;;6.20;1.40;;;20.90;56.40;;;;;;4933888;28;20038;-79
2022/07/02 07:44:56;;;;;;;3.45;1.05;;;20.80;56.40;;;;;;4938248;28;20055;-79
2022/07/02 07:47:22;;;;;;;3.10;1.00;;;20.80;56.50;;;;;;4927251;28;20113;-78
2022/07/02 07:49:48;;;;;;;4.40;1.90;;;20.70;56.70;;;;;;4920657;28;20046;-80
2022/07/02 07:52:14;;;;;;;2.67;1.10;;;20.70;57.10;;;;;;4941671;28;20496;-76
2022/07/02 07:54:40;;;;;;;4.60;0.98;;;20.80;57.40;;;;;;4921959;28;20034;-82
2022/07/02 07:57:06;;;;;;;3.45;1.35;;;20.90;57.40;;;;;;4921826;29;20701;-76
2022/07/02 07:59:31;;;;;;;2.10;0.90;;;21.10;57.50;;;;;;4918397;28;20028;-76
2022/07/02 08:01:57;;;;;;;4.70;1.10;;;21.20;57.40;;;;;;4933607;28;20120;-75
2022/07/02 08:04:24;;;;;;;4.45;1.55;;;21.40;57.50;;;;;;4922392;28;20035;-77
2022/07/02 08:06:50;;;;;;;4.10;1.48;;;21.40;57.30;;;;;;4935948;28;20033;-76
2022/07/02 08:09:16;;;;;;;3.20;0.73;;;21.40;57.30;;;;;;4938146;28;20038;-77
2022/07/02 08:11:42;;;;;;;3.45;1.10;;;21.40;57.40;;;;;;4936707;28;20046;-77
2022/07/02 08:14:08;;;;;;;4.38;0.88;;;21.40;57.50;;;;;;4935849;28;20046;-77
2022/07/02 08:16:34;;;;;;;1.83;0.70;;;21.40;57.50;;;;;;4933278;28;20602;-77
2022/07/02 08:19:00;;;;;;;4.30;1.48;;;21.40;57.50;;;;;;4937845;28;20149;-76
2022/07/02 08:21:26;;;;;;;2.78;1.25;;;21.50;57.70;;;;;;4932526;28;20027;-76
2022/07/02 08:23:52;;;;;;;4.60;1.02;;;21.40;57.50;;;;;;4918215;28;20035;-76
2022/07/02 08:26:18;;;;;;;2.38;0.80;;;21.50;57.70;;;;;;4918158;28;20027;-76
2022/07/02 08:28:44;;;;;;;3.75;1.02;;;21.50;57.70;;;;;;4934382;28;20042;-76
2022/07/02 08:31:10;;;;;;;2.20;1.08;;;21.50;57.70;;;;;;4935223;28;20488;-75
2022/07/02 08:33:37;;;;;;;5.50;1.08;;;21.60;57.80;;;;;;4936757;28;20141;-76
2022/07/02 08:36:03;;;;;;;2.83;1.17;;;21.60;57.70;;;;;;4938647;28;20122;-76
2022/07/02 08:38:29;;;;;;;6.57;1.48;;;21.70;57.70;;;;;;4940016;28;20035;-77
2022/07/02 08:40:55;;;;;;;1.45;0.70;;;21.70;57.60;;;;;;4926073;28;20130;-76
2022/07/02 08:43:28;;;;;;;2.72;0.98;;;21.70;57.70;;;;;;4937435;28;20055;-75
2022/07/02 08:45:59;;;;;;;3.63;1.17;;;21.80;57.80;;;;;;4941457;28;20031;-77
2022/07/02 08:48:28;;;;;;;4.38;1.35;;;21.80;57.70;;;;;;4939942;28;20028;-75
2022/07/02 08:50:56;;;;;;;2.90;1.13;;;21.90;57.70;;;;;;4938934;28;20038;-76
2022/07/02 08:53:22;;;;;;;2.45;0.90;;;21.90;57.70;;;;;;4919609;28;20142;-76
2022/07/02 08:55:50;;;;;;;2.80;0.88;;;21.90;57.70;;;;;;4925237;28;20039;-76
2022/07/02 08:58:17;;;;;;;3.05;1.35;;;21.90;57.80;;;;;;4942333;28;20486;-76
2022/07/02 09:00:43;;;;;;;2.40;0.88;;;21.90;57.80;;;;;;4941331;28;20070;-77
2022/07/02 09:03:10;;;;;;;2.35;0.80;;;21.90;57.80;;;;;;4936938;28;20802;-77
2022/07/02 09:05:38;;;;;;;2.78;0.88;;;22.00;57.90;;;;;;4940638;28;20110;-76
2022/07/02 09:08:05;;;;;;;3.42;0.95;;;22.00;57.80;;;;;;4940270;28;20038;-74
2022/07/02 09:10:31;;;;;;;2.67;1.13;;;22.00;57.80;;;;;;4943101;28;20031;-76
2022/07/02 09:12:58;;;;;;;3.28;0.80;;;21.90;57.60;;;;;;4936427;28;20095;-76
2022/07/02 09:15:27;;;;;;;2.08;1.02;;;21.90;57.90;;;;;;4943091;28;20163;-77
2022/07/02 09:17:53;;;;;;;1.98;0.70;;;21.80;58.10;;;;;;4939413;28;20477;-76
2022/07/02 09:20:19;;;;;;;2.42;0.60;;;21.60;58.00;;;;;;4920029;28;20037;-75
2022/07/02 09:22:48;;;;;;;1.73;0.80;;;21.60;58.20;;;;;;4936871;28;20027;-76
2022/07/02 09:25:23;;;;;;;1.73;0.63;;;21.50;58.20;;;;;;4936324;28;20452;-76
2022/07/02 09:28:00;;;;;;;0.70;0.50;;;21.40;58.30;;;;;;4941834;28;20057;-75
2022/07/02 09:30:30;;;;;;;0.82;0.57;;;21.30;58.40;;;;;;4934065;28;20508;-76
2022/07/02 09:35:40;;;;;;;1.20;0.50;;;21.30;58.70;;;;;;4939594;28;20067;-75
2022/07/02 09:38:10;;;;;;;1.20;0.40;;;21.30;58.70;;;;;;4936517;28;20504;-76
2022/07/02 09:40:39;;;;;;;0.98;0.35;;;21.30;58.70;;;;;;4943839;28;20417;-76
2022/07/02 09:43:05;;;;;;;1.42;0.70;;;21.30;58.70;;;;;;4938199;28;20027;-77
2022/07/02 09:45:32;;;;;;;1.88;0.63;;;21.30;58.70;;;;;;4941013;28;20086;-75
2022/07/02 09:48:02;;;;;;;0.30;0.30;;;21.40;58.90;;;;;;4924628;28;20042;-76
2022/07/02 09:50:28;;;;;;;1.75;0.60;;;21.50;59.00;;;;;;4935758;28;20070;-75
2022/07/02 09:52:58;;;;;;;1.92;0.55;;;21.50;58.90;;;;;;4933439;28;20293;-78
2022/07/02 09:55:29;;;;;;;0.98;0.60;;;21.60;59.00;;;;;;4939987;28;20243;-78
2022/07/02 09:57:57;;;;;;;2.67;0.63;;;21.70;59.10;;;;;;4944333;28;20091;-77
2022/07/02 10:00:25;;;;;;;0.80;0.40;;;21.70;59.00;;;;;;4937042;28;20027;-77
2022/07/02 10:02:53;;;;;;;2.53;0.95;;;21.80;59.10;;;;;;4943348;28;20074;-77
2022/07/02 10:05:25;;;;;;;1.65;0.40;;;21.90;59.30;;;;;;4948847;28;20027;-77
2022/07/02 10:07:55;;;;;;;0.65;0.40;;;22.00;59.30;;;;;;4931432;28;20024;-76
2022/07/02 10:10:34;;;;;;;1.90;0.40;;;22.10;59.10;;;;;;4947527;28;20035;-77
2022/07/02 10:13:00;;;;;;;0.45;0.40;;;22.20;59.10;;;;;;4953470;28;20107;-75
2022/07/02 10:15:31;;;;;;;0.50;0.40;;;22.30;59.00;;;;;;4964819;28;20031;-75
2022/07/02 10:17:59;;;;;;;1.40;0.40;;;22.30;59.00;;;;;;4962870;28;20123;-77
2022/07/02 10:20:25;;;;;;;1.98;0.47;;;22.30;58.90;;;;;;4954838;28;20031;-76
2022/07/02 10:22:51;;;;;;;0.30;0.30;;;22.40;59.10;;;;;;4950986;28;20042;-77
2022/07/02 10:25:18;;;;;;;1.13;0.40;;;22.40;59.10;;;;;;4904339;28;20079;-78
2022/07/02 10:27:46;;;;;;;2.35;0.50;;;22.40;59.00;;;;;;4909968;28;20039;-77
2022/07/02 10:30:15;;;;;;;1.45;0.77;;;22.50;59.20;;;;;;4937258;28;20035;-76
2022/07/02 10:32:55;;;;;;;1.25;0.40;;;22.50;59.10;;;;;;4911232;28;20054;-79
2022/07/02 10:35:23;;;;;;;0.57;0.32;;;22.50;59.10;;;;;;4921434;28;20027;-78
2022/07/02 10:38:00;;;;;;;1.42;0.35;;;22.50;59.10;;;;;;4933133;28;20411;-76
2022/07/02 10:40:27;;;;;;;1.65;0.65;;;22.50;59.00;;;;;;4945230;28;20110;-78
2022/07/02 10:42:57;;;;;;;0.93;0.30;;;22.50;58.90;;;;;;4941447;28;20027;-76
2022/07/02 10:45:24;;;;;;;1.38;0.68;;;22.60;59.10;;;;;;4908382;29;20131;-78
2022/07/02 10:47:57;;;;;;;0.80;0.30;;;22.60;59.00;;;;;;4943732;28;20499;-76
2022/07/02 10:50:35;;;;;;;0.80;0.30;;;22.70;59.00;;;;;;4937447;28;20038;-77
2022/07/02 10:53:14;;;;;;;2.28;0.68;;;22.90;59.10;;;;;;4938375;28;20066;-77
2022/07/02 10:55:43;;;;;;;2.03;0.50;;;23.00;59.00;;;;;;4923597;29;20043;-77
2022/07/02 10:58:19;;;;;;;0.70;0.43;;;23.10;58.80;;;;;;4922894;28;20109;-77
2022/07/02 11:00:45;;;;;;;2.42;0.38;;;23.20;58.80;;;;;;4935683;28;20031;-80
2022/07/02 11:03:15;;;;;;;2.92;0.45;;;23.20;58.70;;;;;;4943885;28;20465;-77
2022/07/02 11:05:56;;;;;;;0.90;0.50;;;23.20;58.60;;;;;;4936075;28;20163;-77
2022/07/02 11:08:54;;;;;;;2.10;0.50;;;23.30;58.70;;;;;;4937438;28;20126;-77
2022/07/02 11:11:35;;;;;;;2.05;1.05;;;23.30;58.50;;;;;;4924057;28;20039;-75
2022/07/02 11:14:04;;;;;;;1.70;0.93;;;23.40;58.60;;;;;;4940404;28;20445;-76
2022/07/02 11:16:39;;;;;;;1.67;0.60;;;23.50;58.60;;;;;;4937614;28;20043;-80
2022/07/02 11:19:12;;;;;;;0.95;0.40;;;23.50;58.40;;;;;;4940838;28;20039;-77
2022/07/02 11:21:40;;;;;;;2.67;0.80;;;23.60;58.50;;;;;;4942897;28;20118;-78
2022/07/02 11:24:06;;;;;;;1.27;0.45;;;23.60;58.40;;;;;;4927358;28;20468;-77
2022/07/02 11:26:32;;;;;;;0.80;0.50;;;23.80;58.50;;;;;;4939398;28;20169;-78
2022/07/02 11:29:05;;;;;;;0.98;0.35;;;23.90;58.40;;;;;;4935967;28;20040;-77
2022/07/02 11:31:34;;;;;;;1.97;0.80;;;24.10;58.40;;;;;;4920261;28;20035;-76
2022/07/02 11:34:00;;;;;;;0.93;0.40;;;24.30;58.40;;;;;;4941955;28;20338;-80
2022/07/02 11:36:27;;;;;;;2.50;0.70;;;24.50;58.30;;;;;;4933738;28;20451;-81
2022/07/02 11:38:53;;;;;;;1.60;0.22;;;24.70;58.20;;;;;;4941870;28;20062;-82
2022/07/02 11:41:28;;;;;;;1.40;0.40;;;24.90;58.20;;;;;;4921375;29;20077;-85
2022/07/02 11:43:58;;;;;;;0.98;0.28;;;25.10;58.10;;;;;;4919803;29;20129;-82
2022/07/02 11:46:26;;;;;;;0.57;0.40;;;25.30;57.80;;;;;;4923617;29;20036;-78
2022/07/02 11:48:54;;;;;;;3.42;0.93;;;25.60;57.40;;;;;;4920389;29;20024;-83
2022/07/02 11:51:20;;;;;;;2.22;0.45;;;25.90;57.20;;;;;;4926060;29;20078;-83
2022/07/02 11:54:02;;;;;;;0.73;0.50;;;25.90;56.90;;;;;;4919785;29;20050;-80
2022/07/02 11:56:31;;;;;;;1.80;0.63;;;26.10;56.70;;;;;;4919505;29;20302;-78
2022/07/02 11:58:57;;;;;;;1.33;0.43;;;26.30;56.30;;;;;;4910395;29;20285;-78
2022/07/02 12:01:28;;;;;;;2.22;0.40;;;26.40;56.30;;;;;;4917460;29;20445;-77
2022/07/02 12:04:00;;;;;;;2.50;0.50;;;26.20;55.30;;;;;;4920042;29;20023;-77
2022/07/02 12:06:29;;;;;;;2.08;0.80;;;26.10;55.30;;;;;;4916046;29;20058;-78
2022/07/02 12:08:57;;;;;;;1.20;0.60;;;26.00;55.50;;;;;;4913898;29;20036;-79
2022/07/02 12:11:24;;;;;;;3.22;0.93;;;25.80;55.60;;;;;;4913186;29;20511;-80
2022/07/02 12:13:51;;;;;;;2.15;0.50;;;25.70;55.80;;;;;;4915234;29;20095;-77
2022/07/02 12:16:23;;;;;;;3.83;0.50;;;25.80;56.00;;;;;;4920166;29;20024;-81
2022/07/02 12:19:06;;;;;;;0.80;0.43;;;25.90;55.90;;;;;;4916853;29;20078;-84
2022/07/02 12:21:37;;;;;;;1.45;0.30;;;26.00;55.80;;;;;;4922175;29;20109;-88
2022/07/02 12:24:22;;;;;;;0.47;0.20;;;26.10;55.60;;;;;;4917072;29;20490;-90
2022/07/02 12:26:49;;;;;;;2.17;0.60;;;26.10;55.50;;;;;;4925882;29;20027;-91
2022/07/02 12:32:09;;;;;;;1.42;0.85;;;26.10;55.40;;;;;;4921388;29;20130;-78
2022/07/02 12:34:40;;;;;;;1.48;0.40;;;25.90;55.40;;;;;;4903083;29;20028;-78
2022/07/02 12:37:06;;;;;;;14.55;1.00;;;25.80;55.60;;;;;;4933353;28;20039;-78
2022/07/02 12:39:43;;;;;;;1.85;0.55;;;25.80;55.80;;;;;;4916826;29;20508;-86
2022/07/02 12:42:23;;;;;;;2.25;0.30;;;25.70;56.00;;;;;;4918001;29;20036;-84
2022/07/02 12:45:10;;;;;;;2.35;0.38;;;25.80;56.10;;;;;;4921714;29;20043;-89
2022/07/02 12:47:40;;;;;;;0.57;0.30;;;25.80;56.00;;;;;;4927348;29;20724;-91
2022/07/02 12:50:14;;;;;;;0.68;0.40;;;25.80;55.70;;;;;;4917187;29;20039;-85
2022/07/02 12:52:49;;;;;;;1.98;0.60;;;25.80;55.50;;;;;;4919207;29;20127;-86
2022/07/02 12:55:22;;;;;;;1.95;0.43;;;25.80;55.40;;;;;;4910817;29;20036;-87
2022/07/02 12:57:49;;;;;;;1.77;0.50;;;25.70;55.20;;;;;;4921740;29;20032;-87
2022/07/02 13:00:15;;;;;;;3.03;0.30;;;25.70;55.30;;;;;;4919017;29;20043;-88
2022/07/02 13:02:41;;;;;;;1.23;0.60;;;25.70;55.40;;;;;;4915923;29;20059;-89
2022/07/02 13:05:07;;;;;;;1.33;0.30;;;25.90;55.60;;;;;;4914994;29;20074;-90